sensor_id;sensor_type;location;lat;lon;timestamp;P1;durP1;ratioP1;P2;durP2;ratioP2
9436;SDS011;4757;59.334;18.034;2023-03-12T00:01:27;6.13;;;2.43;;
9436;SDS011;4757;59.334;18.034;2023-03-12T00:03:56;2.63;;;2.13;;
9436;SDS011;4757;59.334;18.034;2023-03-12T00:06:23;3.67;;;1.80;;
9436;SDS011;4757;59.334;18.034;2023-03-12T00:08:50;2.47;;;1.87;;
9436;SDS011;4757;59.334;18.034;2023-03-12T00:11:20;2.60;;;1.97;;
9436;SDS011;4757;59.334;18.034;2023-03-12T00:13:48;3.17;;;2.57;;
9436;SDS011;4757;59.334;18.034;2023-03-12T00:16:16;5.37;;;2.43;;
9436;SDS011;4757;59.334;18.034;2023-03-12T00:18:45;3.83;;;2.40;;
9436;SDS011;4757;59.334;18.034;2023-03-12T00:21:14;2.40;;;1.97;;
9436;SDS011;4757;59.334;18.034;2023-03-12T00:23:41;2.80;;;1.90;;
9436;SDS011;4757;59.334;18.034;2023-03-12T00:26:09;2.50;;;2.27;;
9436;SDS011;4757;59.334;18.034;2023-03-12T00:28:38;2.43;;;1.80;;
9436;SDS011;4757;59.334;18.034;2023-03-12T00:31:22;6.03;;;2.57;;
9436;SDS011;4757;59.334;18.034;2023-03-12T00:33:54;3.90;;;2.50;;
9436;SDS011;4757;59.334;18.034;2023-03-12T00:36:23;3.20;;;2.30;;
9436;SDS011;4757;59.334;18.034;2023-03-12T00:38:53;2.93;;;1.93;;
9436;SDS011;4757;59.334;18.034;2023-03-12T00:41:21;5.97;;;2.70;;
9436;SDS011;4757;59.334;18.034;2023-03-12T00:43:50;3.23;;;2.20;;
9436;SDS011;4757;59.334;18.034;2023-03-12T00:46:18;2.70;;;2.50;;
9436;SDS011;4757;59.334;18.034;2023-03-12T00:48:45;2.70;;;2.00;;
9436;SDS011;4757;59.334;18.034;2023-03-12T00:51:12;2.17;;;1.90;;
9436;SDS011;4757;59.334;18.034;2023-03-12T00:53:40;3.47;;;2.07;;
9436;SDS011;4757;59.334;18.034;2023-03-12T00:56:07;3.47;;;2.10;;
9436;SDS011;4757;59.334;18.034;2023-03-12T00:58:35;2.80;;;2.13;;
9436;SDS011;4757;59.334;18.034;2023-03-12T01:01:02;2.37;;;2.00;;
9436;SDS011;4757;59.334;18.034;2023-03-12T01:03:30;3.30;;;2.20;;
9436;SDS011;4757;59.334;18.034;2023-03-12T01:05:57;3.70;;;2.00;;
9436;SDS011;4757;59.334;18.034;2023-03-12T01:08:24;3.07;;;2.10;;
9436;SDS011;4757;59.334;18.034;2023-03-12T01:10:51;2.43;;;2.10;;
9436;SDS011;4757;59.334;18.034;2023-03-12T01:13:19;3.30;;;2.10;;
9436;SDS011;4757;59.334;18.034;2023-03-12T01:15:46;2.27;;;1.90;;
9436;SDS011;4757;59.334;18.034;2023-03-12T01:18:13;2.30;;;1.80;;
9436;SDS011;4757;59.334;18.034;2023-03-12T01:20:40;3.90;;;1.97;;
9436;SDS011;4757;59.334;18.034;2023-03-12T01:23:08;5.07;;;3.13;;
9436;SDS011;4757;59.334;18.034;2023-03-12T01:25:35;2.80;;;2.00;;
9436;SDS011;4757;59.334;18.034;2023-03-12T01:28:03;2.37;;;1.90;;
9436;SDS011;4757;59.334;18.034;2023-03-12T01:30:30;3.10;;;2.20;;
9436;SDS011;4757;59.334;18.034;2023-03-12T01:32:57;3.27;;;1.97;;
9436;SDS011;4757;59.334;18.034;2023-03-12T01:35:24;5.47;;;2.27;;
9436;SDS011;4757;59.334;18.034;2023-03-12T01:37:51;3.23;;;2.00;;
9436;SDS011;4757;59.334;18.034;2023-03-12T01:40:21;2.10;;;1.60;;
9436;SDS011;4757;59.334;18.034;2023-03-12T01:42:55;1.67;;;1.47;;
9436;SDS011;4757;59.334;18.034;2023-03-12T01:48:22;2.50;;;1.57;;
9436;SDS011;4757;59.334;18.034;2023-03-12T01:50:50;2.77;;;1.97;;
9436;SDS011;4757;59.334;18.034;2023-03-12T01:53:17;2.87;;;1.40;;
9436;SDS011;4757;59.334;18.034;2023-03-12T01:55:45;2.40;;;1.70;;
9436;SDS011;4757;59.334;18.034;2023-03-12T01:58:12;2.70;;;1.87;;
9436;SDS011;4757;59.334;18.034;2023-03-12T02:00:39;2.63;;;1.73;;
9436;SDS011;4757;59.334;18.034;2023-03-12T02:03:06;3.10;;;1.80;;
9436;SDS011;4757;59.334;18.034;2023-03-12T02:05:45;3.37;;;2.00;;
9436;SDS011;4757;59.334;18.034;2023-03-12T02:08:18;2.40;;;2.00;;
9436;SDS011;4757;59.334;18.034;2023-03-12T02:10:46;2.90;;;1.80;;
9436;SDS011;4757;59.334;18.034;2023-03-12T02:13:13;2.30;;;1.47;;
9436;SDS011;4757;59.334;18.034;2023-03-12T02:15:40;2.43;;;1.63;;
9436;SDS011;4757;59.334;18.034;2023-03-12T02:18:08;2.17;;;1.60;;
9436;SDS011;4757;59.334;18.034;2023-03-12T02:20:40;1.77;;;1.43;;
9436;SDS011;4757;59.334;18.034;2023-03-12T02:24:00;2.53;;;2.30;;
9436;SDS011;4757;59.334;18.034;2023-03-12T02:26:29;2.13;;;1.40;;
9436;SDS011;4757;59.334;18.034;2023-03-12T02:28:58;4.40;;;1.90;;
9436;SDS011;4757;59.334;18.034;2023-03-12T02:31:27;2.37;;;1.73;;
9436;SDS011;4757;59.334;18.034;2023-03-12T02:33:58;3.20;;;1.50;;
9436;SDS011;4757;59.334;18.034;2023-03-12T02:36:26;2.30;;;1.53;;
9436;SDS011;4757;59.334;18.034;2023-03-12T02:38:53;2.77;;;1.97;;
9436;SDS011;4757;59.334;18.034;2023-03-12T02:41:31;2.47;;;1.60;;
9436;SDS011;4757;59.334;18.034;2023-03-12T02:44:04;2.43;;;1.70;;
9436;SDS011;4757;59.334;18.034;2023-03-12T02:46:33;2.83;;;1.90;;
9436;SDS011;4757;59.334;18.034;2023-03-12T02:49:01;3.37;;;2.30;;
9436;SDS011;4757;59.334;18.034;2023-03-12T02:51:29;2.10;;;1.60;;
9436;SDS011;4757;59.334;18.034;2023-03-12T02:53:56;1.77;;;1.50;;
9436;SDS011;4757;59.334;18.034;2023-03-12T02:56:24;3.17;;;2.07;;
9436;SDS011;4757;59.334;18.034;2023-03-12T02:58:53;3.83;;;1.83;;
9436;SDS011;4757;59.334;18.034;2023-03-12T03:01:20;2.07;;;1.70;;
9436;SDS011;4757;59.334;18.034;2023-03-12T03:03:47;3.23;;;2.80;;
9436;SDS011;4757;59.334;18.034;2023-03-12T03:06:15;2.50;;;2.00;;
9436;SDS011;4757;59.334;18.034;2023-03-12T03:08:42;3.03;;;1.77;;
9436;SDS011;4757;59.334;18.034;2023-03-12T03:11:10;2.40;;;1.70;;
9436;SDS011;4757;59.334;18.034;2023-03-12T03:13:37;3.73;;;2.17;;
9436;SDS011;4757;59.334;18.034;2023-03-12T03:16:05;2.07;;;1.80;;
9436;SDS011;4757;59.334;18.034;2023-03-12T03:18:32;2.77;;;1.53;;
9436;SDS011;4757;59.334;18.034;2023-03-12T03:21:00;4.00;;;2.00;;
9436;SDS011;4757;59.334;18.034;2023-03-12T03:23:29;2.37;;;1.70;;
9436;SDS011;4757;59.334;18.034;2023-03-12T03:25:57;3.13;;;2.07;;
9436;SDS011;4757;59.334;18.034;2023-03-12T03:28:25;4.03;;;2.10;;
9436;SDS011;4757;59.334;18.034;2023-03-12T03:30:54;2.37;;;1.77;;
9436;SDS011;4757;59.334;18.034;2023-03-12T03:33:31;2.30;;;2.10;;
9436;SDS011;4757;59.334;18.034;2023-03-12T03:36:00;9.37;;;2.00;;
9436;SDS011;4757;59.334;18.034;2023-03-12T03:38:29;3.97;;;2.00;;
9436;SDS011;4757;59.334;18.034;2023-03-12T03:40:57;2.53;;;1.80;;
9436;SDS011;4757;59.334;18.034;2023-03-12T03:43:25;3.83;;;1.47;;
9436;SDS011;4757;59.334;18.034;2023-03-12T03:46:00;2.37;;;1.30;;
9436;SDS011;4757;59.334;18.034;2023-03-12T03:48:28;5.13;;;2.10;;
9436;SDS011;4757;59.334;18.034;2023-03-12T03:50:59;3.07;;;1.80;;
9436;SDS011;4757;59.334;18.034;2023-03-12T03:53:31;2.70;;;1.83;;
9436;SDS011;4757;59.334;18.034;2023-03-12T03:56:06;1.50;;;1.40;;
9436;SDS011;4757;59.334;18.034;2023-03-12T03:58:35;2.73;;;1.50;;
9436;SDS011;4757;59.334;18.034;2023-03-12T04:01:03;2.23;;;1.60;;
9436;SDS011;4757;59.334;18.034;2023-03-12T04:03:31;3.20;;;2.03;;
9436;SDS011;4757;59.334;18.034;2023-03-12T04:06:00;3.60;;;1.87;;
9436;SDS011;4757;59.334;18.034;2023-03-12T04:08:28;2.13;;;1.50;;
9436;SDS011;4757;59.334;18.034;2023-03-12T04:10:56;2.10;;;1.60;;
9436;SDS011;4757;59.334;18.034;2023-03-12T04:13:23;2.33;;;1.73;;
9436;SDS011;4757;59.334;18.034;2023-03-12T04:15:53;2.47;;;1.70;;
9436;SDS011;4757;59.334;18.034;2023-03-12T04:18:37;2.10;;;1.47;;
9436;SDS011;4757;59.334;18.034;2023-03-12T04:21:06;2.60;;;1.80;;
9436;SDS011;4757;59.334;18.034;2023-03-12T04:23:35;2.33;;;1.60;;
9436;SDS011;4757;59.334;18.034;2023-03-12T04:26:03;2.23;;;1.80;;
9436;SDS011;4757;59.334;18.034;2023-03-12T04:28:31;3.20;;;1.70;;
9436;SDS011;4757;59.334;18.034;2023-03-12T04:31:00;5.80;;;2.13;;
9436;SDS011;4757;59.334;18.034;2023-03-12T04:33:30;3.37;;;1.63;;
9436;SDS011;4757;59.334;18.034;2023-03-12T04:35:58;3.03;;;1.87;;
9436;SDS011;4757;59.334;18.034;2023-03-12T04:38:25;2.07;;;1.60;;
9436;SDS011;4757;59.334;18.034;2023-03-12T04:41:00;4.97;;;1.50;;
9436;SDS011;4757;59.334;18.034;2023-03-12T04:43:30;4.43;;;2.10;;
9436;SDS011;4757;59.334;18.034;2023-03-12T04:45:58;1.50;;;1.27;;
9436;SDS011;4757;59.334;18.034;2023-03-12T04:48:25;3.03;;;2.10;;
9436;SDS011;4757;59.334;18.034;2023-03-12T04:50:53;9.43;;;2.03;;
9436;SDS011;4757;59.334;18.034;2023-03-12T04:53:20;4.33;;;1.70;;
9436;SDS011;4757;59.334;18.034;2023-03-12T04:55:57;2.43;;;1.90;;
9436;SDS011;4757;59.334;18.034;2023-03-12T04:58:25;2.33;;;1.83;;
9436;SDS011;4757;59.334;18.034;2023-03-12T05:00:52;1.60;;;1.40;;
9436;SDS011;4757;59.334;18.034;2023-03-12T05:03:19;2.33;;;1.50;;
9436;SDS011;4757;59.334;18.034;2023-03-12T05:05:46;3.07;;;1.83;;
9436;SDS011;4757;59.334;18.034;2023-03-12T05:08:13;2.40;;;1.50;;
9436;SDS011;4757;59.334;18.034;2023-03-12T05:10:40;1.40;;;1.30;;
9436;SDS011;4757;59.334;18.034;2023-03-12T05:13:14;4.33;;;1.77;;
9436;SDS011;4757;59.334;18.034;2023-03-12T05:15:41;2.57;;;1.77;;
9436;SDS011;4757;59.334;18.034;2023-03-12T05:18:09;2.27;;;1.70;;
9436;SDS011;4757;59.334;18.034;2023-03-12T05:20:36;1.63;;;1.40;;
9436;SDS011;4757;59.334;18.034;2023-03-12T05:23:04;1.57;;;1.47;;
9436;SDS011;4757;59.334;18.034;2023-03-12T05:25:31;3.27;;;2.00;;
9436;SDS011;4757;59.334;18.034;2023-03-12T05:27:58;2.50;;;1.70;;
9436;SDS011;4757;59.334;18.034;2023-03-12T05:30:25;6.10;;;1.67;;
9436;SDS011;4757;59.334;18.034;2023-03-12T05:32:52;1.67;;;1.57;;
9436;SDS011;4757;59.334;18.034;2023-03-12T05:35:19;1.97;;;1.30;;
9436;SDS011;4757;59.334;18.034;2023-03-12T05:37:46;2.57;;;1.77;;
9436;SDS011;4757;59.334;18.034;2023-03-12T05:40:13;4.37;;;2.30;;
9436;SDS011;4757;59.334;18.034;2023-03-12T05:42:40;3.60;;;1.87;;
9436;SDS011;4757;59.334;18.034;2023-03-12T05:45:07;3.57;;;1.50;;
9436;SDS011;4757;59.334;18.034;2023-03-12T05:47:35;1.97;;;1.77;;
9436;SDS011;4757;59.334;18.034;2023-03-12T05:50:02;4.07;;;1.73;;
9436;SDS011;4757;59.334;18.034;2023-03-12T05:52:29;1.53;;;1.37;;
9436;SDS011;4757;59.334;18.034;2023-03-12T05:54:56;2.67;;;1.40;;
9436;SDS011;4757;59.334;18.034;2023-03-12T05:57:23;3.67;;;1.83;;
9436;SDS011;4757;59.334;18.034;2023-03-12T05:59:50;2.93;;;1.70;;
9436;SDS011;4757;59.334;18.034;2023-03-12T06:02:17;2.20;;;1.70;;
9436;SDS011;4757;59.334;18.034;2023-03-12T06:04:45;3.53;;;1.50;;
9436;SDS011;4757;59.334;18.034;2023-03-12T06:07:12;2.37;;;1.60;;
9436;SDS011;4757;59.334;18.034;2023-03-12T06:09:39;2.13;;;1.87;;
9436;SDS011;4757;59.334;18.034;2023-03-12T06:12:07;1.87;;;1.40;;
9436;SDS011;4757;59.334;18.034;2023-03-12T06:14:34;2.37;;;1.53;;
9436;SDS011;4757;59.334;18.034;2023-03-12T06:17:01;1.83;;;1.37;;
9436;SDS011;4757;59.334;18.034;2023-03-12T06:19:28;1.90;;;1.70;;
9436;SDS011;4757;59.334;18.034;2023-03-12T06:21:55;2.83;;;1.20;;
9436;SDS011;4757;59.334;18.034;2023-03-12T06:24:22;1.40;;;1.30;;
9436;SDS011;4757;59.334;18.034;2023-03-12T06:26:50;1.27;;;1.13;;
9436;SDS011;4757;59.334;18.034;2023-03-12T06:29:17;1.50;;;1.17;;
9436;SDS011;4757;59.334;18.034;2023-03-12T06:31:44;2.90;;;1.63;;
9436;SDS011;4757;59.334;18.034;2023-03-12T06:34:13;3.20;;;1.70;;
9436;SDS011;4757;59.334;18.034;2023-03-12T06:36:42;2.17;;;1.70;;
9436;SDS011;4757;59.334;18.034;2023-03-12T06:39:09;2.70;;;1.73;;
9436;SDS011;4757;59.334;18.034;2023-03-12T06:41:36;1.87;;;1.30;;
9436;SDS011;4757;59.334;18.034;2023-03-12T06:44:03;3.07;;;1.20;;
9436;SDS011;4757;59.334;18.034;2023-03-12T06:46:31;1.37;;;0.90;;
9436;SDS011;4757;59.334;18.034;2023-03-12T06:48:59;3.57;;;1.50;;
9436;SDS011;4757;59.334;18.034;2023-03-12T06:51:26;3.47;;;1.63;;
9436;SDS011;4757;59.334;18.034;2023-03-12T06:53:56;5.27;;;1.60;;
9436;SDS011;4757;59.334;18.034;2023-03-12T06:56:23;2.33;;;1.10;;
9436;SDS011;4757;59.334;18.034;2023-03-12T06:58:50;2.50;;;1.20;;
9436;SDS011;4757;59.334;18.034;2023-03-12T07:01:17;1.77;;;1.53;;
9436;SDS011;4757;59.334;18.034;2023-03-12T07:03:44;2.30;;;1.20;;
9436;SDS011;4757;59.334;18.034;2023-03-12T07:06:13;1.53;;;1.20;;
9436;SDS011;4757;59.334;18.034;2023-03-12T07:08:42;1.43;;;1.27;;
9436;SDS011;4757;59.334;18.034;2023-03-12T07:11:09;2.83;;;1.17;;
9436;SDS011;4757;59.334;18.034;2023-03-12T07:13:37;3.30;;;1.40;;
9436;SDS011;4757;59.334;18.034;2023-03-12T07:16:05;3.10;;;1.30;;
9436;SDS011;4757;59.334;18.034;2023-03-12T07:18:35;3.90;;;1.47;;
9436;SDS011;4757;59.334;18.034;2023-03-12T07:21:06;1.10;;;1.00;;
9436;SDS011;4757;59.334;18.034;2023-03-12T07:23:33;1.50;;;1.07;;
9436;SDS011;4757;59.334;18.034;2023-03-12T07:26:02;1.53;;;1.43;;
9436;SDS011;4757;59.334;18.034;2023-03-12T07:28:30;1.07;;;1.00;;
9436;SDS011;4757;59.334;18.034;2023-03-12T07:31:03;1.60;;;1.03;;
9436;SDS011;4757;59.334;18.034;2023-03-12T07:33:31;1.30;;;1.00;;
9436;SDS011;4757;59.334;18.034;2023-03-12T07:35:59;2.33;;;1.10;;
9436;SDS011;4757;59.334;18.034;2023-03-12T07:38:29;2.17;;;1.10;;
9436;SDS011;4757;59.334;18.034;2023-03-12T07:40:57;1.43;;;1.20;;
9436;SDS011;4757;59.334;18.034;2023-03-12T07:43:25;1.53;;;1.13;;
9436;SDS011;4757;59.334;18.034;2023-03-12T07:45:56;1.70;;;1.17;;
9436;SDS011;4757;59.334;18.034;2023-03-12T07:48:25;1.30;;;1.20;;
9436;SDS011;4757;59.334;18.034;2023-03-12T07:50:53;1.70;;;1.57;;
9436;SDS011;4757;59.334;18.034;2023-03-12T07:53:20;2.00;;;1.00;;
9436;SDS011;4757;59.334;18.034;2023-03-12T07:55:50;1.33;;;1.20;;
9436;SDS011;4757;59.334;18.034;2023-03-12T07:58:18;1.67;;;1.20;;
9436;SDS011;4757;59.334;18.034;2023-03-12T08:00:45;1.43;;;1.10;;
9436;SDS011;4757;59.334;18.034;2023-03-12T08:03:13;4.10;;;1.80;;
9436;SDS011;4757;59.334;18.034;2023-03-12T08:05:40;3.47;;;2.00;;
9436;SDS011;4757;59.334;18.034;2023-03-12T08:08:08;1.70;;;0.90;;
9436;SDS011;4757;59.334;18.034;2023-03-12T08:10:36;1.43;;;0.90;;
9436;SDS011;4757;59.334;18.034;2023-03-12T08:13:03;1.00;;;0.90;;
9436;SDS011;4757;59.334;18.034;2023-03-12T08:15:30;1.17;;;1.00;;
9436;SDS011;4757;59.334;18.034;2023-03-12T08:17:58;2.23;;;1.50;;
9436;SDS011;4757;59.334;18.034;2023-03-12T08:20:26;2.47;;;1.20;;
9436;SDS011;4757;59.334;18.034;2023-03-12T08:22:54;2.47;;;1.10;;
9436;SDS011;4757;59.334;18.034;2023-03-12T08:25:22;1.60;;;1.20;;
9436;SDS011;4757;59.334;18.034;2023-03-12T08:27:50;1.80;;;1.07;;
9436;SDS011;4757;59.334;18.034;2023-03-12T08:30:17;2.50;;;1.07;;
9436;SDS011;4757;59.334;18.034;2023-03-12T08:32:44;3.37;;;1.77;;
9436;SDS011;4757;59.334;18.034;2023-03-12T08:35:11;1.10;;;0.93;;
9436;SDS011;4757;59.334;18.034;2023-03-12T08:37:38;1.13;;;0.83;;
9436;SDS011;4757;59.334;18.034;2023-03-12T08:40:07;1.57;;;1.10;;
9436;SDS011;4757;59.334;18.034;2023-03-12T08:42:39;1.63;;;0.90;;
9436;SDS011;4757;59.334;18.034;2023-03-12T08:45:10;3.33;;;1.20;;
9436;SDS011;4757;59.334;18.034;2023-03-12T08:47:38;1.03;;;0.63;;
9436;SDS011;4757;59.334;18.034;2023-03-12T08:50:07;1.00;;;0.90;;
9436;SDS011;4757;59.334;18.034;2023-03-12T08:52:36;1.07;;;1.00;;
9436;SDS011;4757;59.334;18.034;2023-03-12T08:55:04;0.83;;;0.80;;
9436;SDS011;4757;59.334;18.034;2023-03-12T08:57:31;2.13;;;1.10;;
9436;SDS011;4757;59.334;18.034;2023-03-12T08:59:58;0.90;;;0.90;;
9436;SDS011;4757;59.334;18.034;2023-03-12T09:02:25;7.73;;;1.20;;
9436;SDS011;4757;59.334;18.034;2023-03-12T09:04:53;1.07;;;0.90;;
9436;SDS011;4757;59.334;18.034;2023-03-12T09:07:21;1.83;;;1.07;;
9436;SDS011;4757;59.334;18.034;2023-03-12T09:09:48;3.70;;;1.43;;
9436;SDS011;4757;59.334;18.034;2023-03-12T09:12:15;3.20;;;0.97;;
9436;SDS011;4757;59.334;18.034;2023-03-12T09:14:43;1.97;;;0.87;;
9436;SDS011;4757;59.334;18.034;2023-03-12T09:17:30;5.63;;;1.20;;
9436;SDS011;4757;59.334;18.034;2023-03-12T09:19:57;3.70;;;1.13;;
9436;SDS011;4757;59.334;18.034;2023-03-12T09:22:27;3.27;;;1.10;;
9436;SDS011;4757;59.334;18.034;2023-03-12T09:24:55;0.97;;;0.97;;
9436;SDS011;4757;59.334;18.034;2023-03-12T09:27:23;1.63;;;1.00;;
9436;SDS011;4757;59.334;18.034;2023-03-12T09:29:51;0.80;;;0.80;;
9436;SDS011;4757;59.334;18.034;2023-03-12T09:32:26;2.67;;;1.70;;
9436;SDS011;4757;59.334;18.034;2023-03-12T09:34:53;1.70;;;1.10;;
9436;SDS011;4757;59.334;18.034;2023-03-12T09:37:20;1.23;;;1.00;;
9436;SDS011;4757;59.334;18.034;2023-03-12T09:39:49;3.13;;;1.00;;
9436;SDS011;4757;59.334;18.034;2023-03-12T09:43:00;1.47;;;1.00;;
9436;SDS011;4757;59.334;18.034;2023-03-12T09:45:24;3.33;;;1.00;;
9436;SDS011;4757;59.334;18.034;2023-03-12T09:47:58;2.83;;;1.00;;
9436;SDS011;4757;59.334;18.034;2023-03-12T09:55:57;0.93;;;0.90;;
9436;SDS011;4757;59.334;18.034;2023-03-12T09:58:31;1.63;;;1.00;;
9436;SDS011;4757;59.334;18.034;2023-03-12T10:01:02;2.07;;;1.00;;
9436;SDS011;4757;59.334;18.034;2023-03-12T10:03:52;1.57;;;0.90;;
9436;SDS011;4757;59.334;18.034;2023-03-12T10:06:38;4.07;;;1.30;;
9436;SDS011;4757;59.334;18.034;2023-03-12T10:20:07;4.10;;;1.13;;
9436;SDS011;4757;59.334;18.034;2023-03-12T10:23:12;1.13;;;0.90;;
9436;SDS011;4757;59.334;18.034;2023-03-12T10:31:07;1.53;;;0.90;;
9436;SDS011;4757;59.334;18.034;2023-03-12T10:33:53;2.37;;;0.90;;
9436;SDS011;4757;59.334;18.034;2023-03-12T10:36:27;1.60;;;1.50;;
9436;SDS011;4757;59.334;18.034;2023-03-12T10:39:02;1.10;;;1.00;;
9436;SDS011;4757;59.334;18.034;2023-03-12T10:41:30;2.10;;;0.90;;
9436;SDS011;4757;59.334;18.034;2023-03-12T10:44:05;0.70;;;0.70;;
9436;SDS011;4757;59.334;18.034;2023-03-12T10:49:26;1.00;;;0.90;;
9436;SDS011;4757;59.334;18.034;2023-03-12T10:54:35;0.80;;;0.80;;
9436;SDS011;4757;59.334;18.034;2023-03-12T10:57:10;3.97;;;1.00;;
9436;SDS011;4757;59.334;18.034;2023-03-12T10:59:39;2.03;;;0.77;;
9436;SDS011;4757;59.334;18.034;2023-03-12T11:02:54;1.67;;;0.83;;
9436;SDS011;4757;59.334;18.034;2023-03-12T11:05:06;1.50;;;1.23;;
9436;SDS011;4757;59.334;18.034;2023-03-12T11:07:46;2.47;;;0.70;;
9436;SDS011;4757;59.334;18.034;2023-03-12T11:10:16;1.60;;;0.80;;
9436;SDS011;4757;59.334;18.034;2023-03-12T11:13:08;1.03;;;0.73;;
9436;SDS011;4757;59.334;18.034;2023-03-12T11:15:55;1.40;;;1.00;;
9436;SDS011;4757;59.334;18.034;2023-03-12T11:18:36;1.33;;;0.60;;
9436;SDS011;4757;59.334;18.034;2023-03-12T11:23:37;0.50;;;0.50;;
9436;SDS011;4757;59.334;18.034;2023-03-12T11:26:17;1.60;;;0.83;;
9436;SDS011;4757;59.334;18.034;2023-03-12T11:28:50;2.90;;;0.83;;
9436;SDS011;4757;59.334;18.034;2023-03-12T11:31:23;2.93;;;2.03;;
9436;SDS011;4757;59.334;18.034;2023-03-12T11:33:56;4.63;;;1.93;;
9436;SDS011;4757;59.334;18.034;2023-03-12T11:36:50;1.63;;;1.20;;
9436;SDS011;4757;59.334;18.034;2023-03-12T11:39:38;1.20;;;0.80;;
9436;SDS011;4757;59.334;18.034;2023-03-12T11:45:25;2.80;;;1.63;;
9436;SDS011;4757;59.334;18.034;2023-03-12T11:48:37;2.20;;;1.00;;
9436;SDS011;4757;59.334;18.034;2023-03-12T11:51:27;2.67;;;0.67;;
9436;SDS011;4757;59.334;18.034;2023-03-12T11:57:05;1.40;;;0.90;;
9436;SDS011;4757;59.334;18.034;2023-03-12T11:59:56;6.97;;;1.57;;
9436;SDS011;4757;59.334;18.034;2023-03-12T12:05:42;1.70;;;1.00;;
9436;SDS011;4757;59.334;18.034;2023-03-12T12:08:47;0.60;;;0.60;;
9436;SDS011;4757;59.334;18.034;2023-03-12T12:14:38;0.60;;;0.60;;
9436;SDS011;4757;59.334;18.034;2023-03-12T12:17:12;0.73;;;0.60;;
9436;SDS011;4757;59.334;18.034;2023-03-12T12:22:38;3.00;;;1.00;;
9436;SDS011;4757;59.334;18.034;2023-03-12T12:25:41;2.13;;;0.90;;
9436;SDS011;4757;59.334;18.034;2023-03-12T12:36:39;2.30;;;0.73;;
9436;SDS011;4757;59.334;18.034;2023-03-12T12:39:21;1.17;;;0.80;;
9436;SDS011;4757;59.334;18.034;2023-03-12T12:41:55;4.13;;;1.30;;
9436;SDS011;4757;59.334;18.034;2023-03-12T12:44:50;1.67;;;0.77;;
9436;SDS011;4757;59.334;18.034;2023-03-12T12:47:18;1.57;;;1.10;;
9436;SDS011;4757;59.334;18.034;2023-03-12T12:49:58;4.70;;;1.70;;
9436;SDS011;4757;59.334;18.034;2023-03-12T12:52:26;3.67;;;1.10;;
9436;SDS011;4757;59.334;18.034;2023-03-12T12:55:05;0.70;;;0.70;;
9436;SDS011;4757;59.334;18.034;2023-03-12T12:57:46;0.50;;;0.50;;
9436;SDS011;4757;59.334;18.034;2023-03-12T13:00:52;3.17;;;0.90;;
9436;SDS011;4757;59.334;18.034;2023-03-12T13:03:24;0.90;;;0.70;;
9436;SDS011;4757;59.334;18.034;2023-03-12T13:05:54;1.60;;;1.03;;
9436;SDS011;4757;59.334;18.034;2023-03-12T13:13:50;0.67;;;0.60;;
9436;SDS011;4757;59.334;18.034;2023-03-12T13:16:40;1.40;;;1.00;;
9436;SDS011;4757;59.334;18.034;2023-03-12T13:24:30;0.67;;;0.60;;
9436;SDS011;4757;59.334;18.034;2023-03-12T13:27:16;1.00;;;0.70;;
9436;SDS011;4757;59.334;18.034;2023-03-12T13:29:44;3.73;;;1.13;;
9436;SDS011;4757;59.334;18.034;2023-03-12T13:45:30;1.47;;;0.70;;
9436;SDS011;4757;59.334;18.034;2023-03-12T13:47:59;1.30;;;0.90;;
9436;SDS011;4757;59.334;18.034;2023-03-12T13:50:30;1.70;;;0.53;;
9436;SDS011;4757;59.334;18.034;2023-03-12T13:53:05;0.63;;;0.63;;
9436;SDS011;4757;59.334;18.034;2023-03-12T13:55:41;1.53;;;0.80;;
9436;SDS011;4757;59.334;18.034;2023-03-12T13:58:14;1.33;;;0.67;;
9436;SDS011;4757;59.334;18.034;2023-03-12T14:01:00;3.47;;;0.80;;
9436;SDS011;4757;59.334;18.034;2023-03-12T14:03:34;0.80;;;0.80;;
9436;SDS011;4757;59.334;18.034;2023-03-12T14:06:12;2.07;;;1.30;;
9436;SDS011;4757;59.334;18.034;2023-03-12T14:11:38;4.63;;;0.80;;
9436;SDS011;4757;59.334;18.034;2023-03-12T14:17:24;2.37;;;0.70;;
9436;SDS011;4757;59.334;18.034;2023-03-12T14:20:02;0.50;;;0.50;;
9436;SDS011;4757;59.334;18.034;2023-03-12T14:22:38;2.03;;;1.10;;
9436;SDS011;4757;59.334;18.034;2023-03-12T14:25:43;1.67;;;1.17;;
9436;SDS011;4757;59.334;18.034;2023-03-12T14:28:29;0.90;;;0.80;;
9436;SDS011;4757;59.334;18.034;2023-03-12T14:31:12;2.47;;;1.43;;
9436;SDS011;4757;59.334;18.034;2023-03-12T14:33:56;2.20;;;1.00;;
9436;SDS011;4757;59.334;18.034;2023-03-12T14:36:28;2.57;;;0.90;;
9436;SDS011;4757;59.334;18.034;2023-03-12T14:39:33;1.20;;;0.93;;
9436;SDS011;4757;59.334;18.034;2023-03-12T14:45:28;2.77;;;1.23;;
9436;SDS011;4757;59.334;18.034;2023-03-12T14:48:09;1.17;;;1.10;;
9436;SDS011;4757;59.334;18.034;2023-03-12T14:51:05;1.67;;;0.80;;
9436;SDS011;4757;59.334;18.034;2023-03-12T14:54:19;0.50;;;0.50;;
9436;SDS011;4757;59.334;18.034;2023-03-12T14:57:31;0.83;;;0.70;;
9436;SDS011;4757;59.334;18.034;2023-03-12T15:00:32;0.70;;;0.70;;
9436;SDS011;4757;59.334;18.034;2023-03-12T15:03:11;1.00;;;0.90;;
9436;SDS011;4757;59.334;18.034;2023-03-12T15:05:50;2.43;;;1.30;;
9436;SDS011;4757;59.334;18.034;2023-03-12T15:08:42;3.70;;;1.10;;
9436;SDS011;4757;59.334;18.034;2023-03-12T15:11:12;3.07;;;0.90;;
9436;SDS011;4757;59.334;18.034;2023-03-12T15:13:47;0.70;;;0.70;;
9436;SDS011;4757;59.334;18.034;2023-03-12T15:16:16;1.20;;;0.70;;
9436;SDS011;4757;59.334;18.034;2023-03-12T15:18:46;1.93;;;1.13;;
9436;SDS011;4757;59.334;18.034;2023-03-12T15:21:16;0.70;;;0.70;;
9436;SDS011;4757;59.334;18.034;2023-03-12T15:23:47;1.50;;;1.13;;
9436;SDS011;4757;59.334;18.034;2023-03-12T15:26:42;0.90;;;0.80;;
9436;SDS011;4757;59.334;18.034;2023-03-12T15:29:28;1.40;;;1.00;;
9436;SDS011;4757;59.334;18.034;2023-03-12T15:32:47;1.77;;;0.40;;
9436;SDS011;4757;59.334;18.034;2023-03-12T15:41:52;2.00;;;1.17;;
9436;SDS011;4757;59.334;18.034;2023-03-12T15:44:44;1.87;;;1.33;;
9436;SDS011;4757;59.334;18.034;2023-03-12T15:47:30;2.50;;;0.90;;
9436;SDS011;4757;59.334;18.034;2023-03-12T15:50:36;1.20;;;0.93;;
9436;SDS011;4757;59.334;18.034;2023-03-12T15:53:36;1.83;;;0.80;;
9436;SDS011;4757;59.334;18.034;2023-03-12T15:56:26;0.67;;;0.50;;
9436;SDS011;4757;59.334;18.034;2023-03-12T16:01:47;1.37;;;1.10;;
9436;SDS011;4757;59.334;18.034;2023-03-12T16:04:23;1.83;;;1.10;;
9436;SDS011;4757;59.334;18.034;2023-03-12T16:07:07;0.80;;;0.80;;
9436;SDS011;4757;59.334;18.034;2023-03-12T16:09:53;1.47;;;0.83;;
9436;SDS011;4757;59.334;18.034;2023-03-12T16:12:42;1.60;;;0.80;;
9436;SDS011;4757;59.334;18.034;2023-03-12T16:16:03;0.93;;;0.80;;
9436;SDS011;4757;59.334;18.034;2023-03-12T16:19:02;4.43;;;1.13;;
9436;SDS011;4757;59.334;18.034;2023-03-12T16:21:53;0.80;;;0.70;;
9436;SDS011;4757;59.334;18.034;2023-03-12T16:24:26;3.17;;;1.00;;
9436;SDS011;4757;59.334;18.034;2023-03-12T16:27:05;1.20;;;0.70;;
9436;SDS011;4757;59.334;18.034;2023-03-12T16:30:40;1.37;;;1.13;;
9436;SDS011;4757;59.334;18.034;2023-03-12T16:33:22;1.47;;;1.00;;
9436;SDS011;4757;59.334;18.034;2023-03-12T16:36:13;0.90;;;0.90;;
9436;SDS011;4757;59.334;18.034;2023-03-12T16:38:51;3.60;;;1.13;;
9436;SDS011;4757;59.334;18.034;2023-03-12T16:41:28;1.73;;;1.00;;
9436;SDS011;4757;59.334;18.034;2023-03-12T16:43:59;2.13;;;0.90;;
9436;SDS011;4757;59.334;18.034;2023-03-12T16:46:35;1.40;;;1.03;;
9436;SDS011;4757;59.334;18.034;2023-03-12T16:49:29;2.33;;;0.90;;
9436;SDS011;4757;59.334;18.034;2023-03-12T16:52:55;2.50;;;1.07;;
9436;SDS011;4757;59.334;18.034;2023-03-12T16:55:59;0.70;;;0.70;;
9436;SDS011;4757;59.334;18.034;2023-03-12T16:58:42;3.00;;;1.10;;
9436;SDS011;4757;59.334;18.034;2023-03-12T17:01:42;1.27;;;1.10;;
9436;SDS011;4757;59.334;18.034;2023-03-12T17:07:31;1.03;;;0.97;;
9436;SDS011;4757;59.334;18.034;2023-03-12T17:10:39;2.70;;;1.40;;
9436;SDS011;4757;59.334;18.034;2023-03-12T17:14:03;2.03;;;0.80;;
9436;SDS011;4757;59.334;18.034;2023-03-12T17:16:47;1.70;;;0.97;;
9436;SDS011;4757;59.334;18.034;2023-03-12T17:19:35;1.33;;;0.90;;
9436;SDS011;4757;59.334;18.034;2023-03-12T17:22:15;2.50;;;1.00;;
9436;SDS011;4757;59.334;18.034;2023-03-12T17:24:56;1.57;;;1.00;;